Big Bear Station Historical Data
Daily Summary for March 20, 2017 Units:  English    Metric   Both
« Previous Day
Next Day »
Daily Weekly Monthly Yearly Custom
  High: Low: Average:
Temperature: 62.1 °F 40.5 °F 49.8 °F
Dew Point: 35.8 °F 12.2 °F 25.7 °F
Humidity: 72 % 20 % 42 %
Wind Speed: 8.9 mph 0.0 mph 3 mph
Wind Gust: -999.0 mph - -
Wind:- - SSW
Pressure: 30.25 in 30.18 in -
Precipitation: 0.00 in    
Historical Graphs
 
 
Tabular Data for March 20, 2017
Time Temperature Dew Point Pressure Wind Wind Speed Wind Gust Humidity Rainfall Rate (Hourly)
00:10 43.5 °F 32.1 °F 30.25 in SE 1.7 mph -999.0 mph 64 % 0 in
00:25 43.3 °F 32.7 °F 30.25 in South 2.2 mph -999.0 mph 66 % 0 in
00:41 43.0 °F 32.4 °F 30.25 in Calm   -999.0 mph 66 % 0 in
00:56 42.3 °F 32.1 °F 30.25 in Calm   -999.0 mph 67 % 0 in
01:11 41.9 °F 32.1 °F 30.25 in SSW 2.2 mph -999.0 mph 68 % 0 in
01:26 41.4 °F 32.3 °F 30.24 in WSW 1.7 mph -999.0 mph 70 % 0 in
01:41 41.0 °F 32.3 °F 30.24 in SSE 1.7 mph -999.0 mph 71 % 0 in
01:57 40.5 °F 32.2 °F 30.23 in South 2.2 mph -999.0 mph 72 % 0 in
02:12 44.4 °F 30.1 °F 30.22 in SSE 5.3 mph -999.0 mph 57 % 0 in
02:28 48.0 °F 28.7 °F 30.22 in SSE 2.7 mph -999.0 mph 47 % 0 in
02:43 47.8 °F 28.0 °F 30.22 in WSW 2.7 mph -999.0 mph 46 % 0 in
02:59 47.7 °F 29.0 °F 30.22 in South 2.7 mph -999.0 mph 48 % 0 in
03:14 47.1 °F 29.9 °F 30.22 in SSE 2.7 mph -999.0 mph 51 % 0 in
03:30 47.3 °F 30.6 °F 30.22 in South 5.3 mph -999.0 mph 52 % 0 in
03:45 47.1 °F 30.8 °F 30.21 in SSW 6.3 mph -999.0 mph 53 % 0 in
04:00 46.8 °F 30.6 °F 30.20 in SSW 5.8 mph -999.0 mph 53 % 0 in
04:15 46.8 °F 31.0 °F 30.19 in SSE 1.7 mph -999.0 mph 54 % 0 in
04:31 46.6 °F 30.4 °F 30.20 in NE 3.7 mph -999.0 mph 53 % 0 in
04:46 46.6 °F 29.9 °F 30.19 in SE 1.7 mph -999.0 mph 52 % 0 in
05:16 46.0 °F 30.3 °F 30.19 in WNW 2.2 mph -999.0 mph 54 % 0 in
05:32 46.6 °F 30.8 °F 30.19 in West 4.2 mph -999.0 mph 54 % 0 in
05:47 46.8 °F 29.6 °F 30.19 in South 5.3 mph -999.0 mph 51 % 0 in
06:02 47.1 °F 28.9 °F 30.19 in SSE 3.2 mph -999.0 mph 49 % 0 in
06:18 46.8 °F 27.6 °F 30.19 in SSW 3.2 mph -999.0 mph 47 % 0 in
06:33 46.8 °F 26.6 °F 30.19 in SW 3.2 mph -999.0 mph 45 % 0 in
06:48 46.6 °F 26.9 °F 30.20 in ESE 2.2 mph -999.0 mph 46 % 0 in
07:03 46.2 °F 27.6 °F 30.20 in SSW 5.3 mph -999.0 mph 48 % 0 in
07:18 45.9 °F 28.8 °F 30.20 in SSW 1.1 mph -999.0 mph 51 % 0 in
07:34 45.5 °F 29.8 °F 30.21 in SSW 2.2 mph -999.0 mph 54 % 0 in
07:49 44.8 °F 29.2 °F 30.22 in ENE 1.1 mph -999.0 mph 54 % 0 in
08:04 44.4 °F 28.3 °F 30.22 in Calm   -999.0 mph 53 % 0 in
08:19 45.5 °F 26.4 °F 30.23 in West 3.7 mph -999.0 mph 47 % 0 in
08:34 47.3 °F 24.2 °F 30.23 in NNW 1.7 mph -999.0 mph 40 % 0 in
08:50 47.5 °F 23.8 °F 30.23 in NW 1.7 mph -999.0 mph 39 % 0 in
09:05 48.7 °F 19.4 °F 30.23 in SSW 3.7 mph -999.0 mph 31 % 0 in
09:20 51.4 °F 15.8 °F 30.22 in ENE 2.7 mph -999.0 mph 24 % 0 in
09:36 52.7 °F 15.9 °F 30.22 in SSW 2.7 mph -999.0 mph 23 % 0 in
09:51 54.3 °F 16.2 °F 30.22 in SW 4.2 mph -999.0 mph 22 % 0 in
10:06 54.7 °F 17.6 °F 30.22 in South 5.3 mph -999.0 mph 23 % 0 in
10:21 55.0 °F 16.8 °F 30.22 in South 2.2 mph -999.0 mph 22 % 0 in
10:36 55.2 °F 18.0 °F 30.22 in SSW 6.3 mph -999.0 mph 23 % 0 in
10:52 57.2 °F 19.7 °F 30.22 in South 2.2 mph -999.0 mph 23 % 0 in
11:07 58.1 °F 20.5 °F 30.22 in ESE 5.3 mph -999.0 mph 23 % 0 in
11:22 59.0 °F 22.2 °F 30.22 in SW 4.2 mph -999.0 mph 24 % 0 in
11:37 60.1 °F 23.2 °F 30.22 in SSE 4.7 mph -999.0 mph 24 % 0 in
11:53 61.0 °F 22.9 °F 30.23 in SE 4.2 mph -999.0 mph 23 % 0 in
12:08 60.4 °F 21.4 °F 30.23 in South 6.3 mph -999.0 mph 22 % 0 in
12:24 60.8 °F 21.7 °F 30.23 in SSW 8.3 mph -999.0 mph 22 % 0 in
12:39 61.5 °F 23.3 °F 30.23 in SSE 7.3 mph -999.0 mph 23 % 0 in
12:54 62.1 °F 23.8 °F 30.23 in West 2.7 mph -999.0 mph 23 % 0 in
13:10 62.1 °F 25.8 °F 30.23 in ESE 1.1 mph -999.0 mph 25 % 0 in
13:25 62.1 °F 23.8 °F 30.22 in South 8.3 mph -999.0 mph 23 % 0 in
13:40 61.3 °F 24.2 °F 30.22 in NNW 1.7 mph -999.0 mph 24 % 0 in
13:55 59.9 °F 23.0 °F 30.22 in East 2.7 mph -999.0 mph 24 % 0 in
14:11 58.5 °F 17.5 °F 30.21 in SSW 8.9 mph -999.0 mph 20 % 0 in
14:26 58.1 °F 21.5 °F 30.21 in ENE 6.3 mph -999.0 mph 24 % 0 in
14:41 57.9 °F 17.0 °F 30.21 in SSE 5.8 mph -999.0 mph 20 % 0 in
14:56 56.5 °F 18.1 °F 30.21 in South 3.2 mph -999.0 mph 22 % 0 in
15:12 55.0 °F 17.8 °F 30.20 in South 5.8 mph -999.0 mph 23 % 0 in
15:27 55.6 °F 19.3 °F 30.20 in NNW 2.7 mph -999.0 mph 24 % 0 in
15:43 54.9 °F 23.2 °F 30.19 in South 2.2 mph -999.0 mph 29 % 0 in
15:58 54.3 °F 24.3 °F 30.19 in West 4.2 mph -999.0 mph 31 % 0 in
16:14 54.0 °F 24.8 °F 30.19 in SSE 5.8 mph -999.0 mph 32 % 0 in
16:29 53.6 °F 24.4 °F 30.19 in SE 4.2 mph -999.0 mph 32 % 0 in
16:44 53.6 °F 27.9 °F 30.19 in SSW 1.1 mph -999.0 mph 37 % 0 in
17:00 52.5 °F 27.0 °F 30.19 in WSW 6.3 mph -999.0 mph 37 % 0 in
17:15 52.7 °F 27.8 °F 30.19 in SSW 2.7 mph -999.0 mph 38 % 0 in
17:30 52.9 °F 26.0 °F 30.18 in Calm   -999.0 mph 35 % 0 in
17:45 52.0 °F 26.5 °F 30.18 in SSW 2.7 mph -999.0 mph 37 % 0 in
18:01 51.4 °F 26.0 °F 30.18 in Calm   -999.0 mph 37 % 0 in
18:16 51.1 °F 25.7 °F 30.18 in SSE 2.7 mph -999.0 mph 37 % 0 in
18:31 50.9 °F 26.2 °F 30.18 in North 2.7 mph -999.0 mph 38 % 0 in
18:46 49.5 °F 32.6 °F 30.18 in NNW 1.7 mph -999.0 mph 52 % 0 in
19:01 47.5 °F 33.0 °F 30.18 in NNE 1.7 mph -999.0 mph 57 % 0 in
19:17 46.2 °F 35.8 °F 30.18 in Calm   -999.0 mph 67 % 0 in
19:32 45.3 °F 34.6 °F 30.18 in Calm   -999.0 mph 66 % 0 in
19:47 45.5 °F 29.8 °F 30.18 in NNE 2.2 mph -999.0 mph 54 % 0 in
20:02 46.8 °F 26.0 °F 30.18 in NNE 1.7 mph -999.0 mph 44 % 0 in
20:17 46.8 °F 23.1 °F 30.19 in NNW 2.2 mph -999.0 mph 39 % 0 in
20:33 46.0 °F 33.7 °F 30.19 in SSW 1.1 mph -999.0 mph 62 % 0 in
20:48 44.8 °F 34.1 °F 30.19 in Calm   -999.0 mph 66 % 0 in
21:03 44.1 °F 31.5 °F 30.20 in SW 1.1 mph -999.0 mph 61 % 0 in
21:18 43.7 °F 28.1 °F 30.20 in WSW 2.2 mph -999.0 mph 54 % 0 in
21:34 44.1 °F 28.1 °F 30.19 in NNW 1.7 mph -999.0 mph 53 % 0 in
21:49 43.9 °F 27.4 °F 30.19 in WNW 2.2 mph -999.0 mph 52 % 0 in
22:05 44.1 °F 27.1 °F 30.19 in NW 2.7 mph -999.0 mph 51 % 0 in
22:20 44.2 °F 25.2 °F 30.19 in NW 3.7 mph -999.0 mph 47 % 0 in
22:35 44.2 °F 22.5 °F 30.19 in NNW 3.2 mph -999.0 mph 42 % 0 in
22:50 44.8 °F 16.7 °F 30.19 in NNW 1.1 mph -999.0 mph 32 % 0 in
23:05 44.4 °F 17.8 °F 30.19 in Calm   -999.0 mph 34 % 0 in
23:21 44.2 °F 14.7 °F 30.19 in Calm   -999.0 mph 30 % 0 in
23:36 44.1 °F 12.2 °F 30.19 in NNE 1.1 mph -999.0 mph 27 % 0 in
23:51 43.9 °F 12.9 °F 30.19 in Calm   -999.0 mph 28 % 0 in
Big Bear CA Weather
Compliments of Weather Underground - 1.5 mb